Dover, Michigan
Current Conditions -  °F | °C
As of 12:53 PM on Thursday 30 Oct 2014 (Local Time) from KARB Reporting Station
Broken Clouds Broken Clouds  
Wind Chill: 47°   Ceiling: 4200
Heat Index: 47°   Visibility: 10mi
Dew Point: 34°   Wind: 3mph
Humidity: 61%   Direction: NA
Pressure: 30.12"   Gusts: NA
Location:  42.3528°N, 83.8974°W
Report Text: KARB 301653Z VRB03KT 10SM BKN042 08/01 A3012 RMK AO2 SLP204 T00830011
Loading
Personal Weather Stations






























Interactive Weather Map New forecast layout! Learn more

10-Day Weather Forecast

Advertisements
Track Severe Weather on mobile